createdAt,value
2018-05-26T00:01:09.093Z,72.53
2018-05-26T00:03:37.325Z,72.79
2018-05-26T00:06:05.571Z,72.80
2018-05-26T00:08:33.816Z,72.53
2018-05-26T00:11:02.825Z,72.73
2018-05-26T00:13:31.066Z,72.60
2018-05-26T00:15:59.298Z,72.58
2018-05-26T00:18:27.550Z,72.47
2018-05-26T00:20:55.790Z,72.50
2018-05-26T00:23:24.047Z,72.59
2018-05-26T00:25:52.286Z,72.05
2018-05-26T00:28:20.518Z,72.70
2018-05-26T00:30:48.762Z,72.83
2018-05-26T00:33:17.007Z,72.95
2018-05-26T00:35:45.289Z,73.23
2018-05-26T00:38:13.518Z,72.98
2018-05-26T00:40:41.754Z,73.01
2018-05-26T00:43:10.006Z,73.25
2018-05-26T00:45:38.258Z,73.19
2018-05-26T00:48:07.253Z,73.49
2018-05-26T00:50:36.272Z,73.50
2018-05-26T00:53:04.817Z,73.60
2018-05-26T00:55:33.045Z,73.19
2018-05-26T00:58:01.298Z,73.47
2018-05-26T01:00:29.530Z,73.31
2018-05-26T01:02:58.551Z,73.45
2018-05-26T01:05:27.550Z,73.74
2018-05-26T01:07:56.642Z,73.83
2018-05-26T01:10:25.660Z,73.57
2018-05-26T01:12:53.902Z,73.65
2018-05-26T01:15:22.893Z,73.95
2018-05-26T01:17:52.301Z,74.06
2018-05-26T01:20:22.207Z,73.87
2018-05-26T01:22:51.223Z,73.80
2018-05-26T01:25:19.462Z,73.70
2018-05-26T01:27:47.691Z,73.96
2018-05-26T01:30:15.943Z,73.90
2018-05-26T01:32:44.958Z,73.83
2018-05-26T01:35:13.190Z,74.03
2018-05-26T01:37:42.190Z,74.03
2018-05-26T01:40:11.207Z,74.04
2018-05-26T01:42:39.438Z,74.24
2018-05-26T01:45:07.678Z,74.11
2018-05-26T01:47:35.918Z,74.30
2018-05-26T01:50:04.936Z,74.35
2018-05-26T01:52:33.174Z,74.42
2018-05-26T01:55:02.173Z,74.52
2018-05-26T01:57:31.185Z,74.76
2018-05-26T01:59:59.435Z,74.72
2018-05-26T02:02:28.462Z,74.57
2018-05-26T02:04:56.921Z,74.42
2018-05-26T02:07:25.922Z,74.61
2018-05-26T02:09:54.922Z,74.84
2018-05-26T02:12:23.394Z,74.95
2018-05-26T02:14:52.412Z,74.99
2018-05-26T02:17:20.643Z,74.97
2018-05-26T02:19:48.890Z,75.55
2018-05-26T02:22:17.139Z,75.58
2018-05-26T02:24:45.479Z,75.77
2018-05-26T02:27:14.477Z,75.73
2018-05-26T02:29:43.482Z,75.77
2018-05-26T02:32:11.758Z,75.70
2018-05-26T02:34:40.024Z,76.01
2018-05-26T02:37:09.026Z,76.37
2018-05-26T02:39:37.270Z,76.21
2018-05-26T02:42:05.526Z,76.33
2018-05-26T02:44:33.768Z,76.18
2018-05-26T02:47:02.030Z,76.12
2018-05-26T02:49:30.275Z,76.31
2018-05-26T02:51:58.528Z,76.05
2018-05-26T02:54:26.762Z,76.15
2018-05-26T02:56:55.325Z,76.01
2018-05-26T02:59:24.345Z,76.12
2018-05-26T03:01:52.586Z,76.25
2018-05-26T03:04:26.271Z,76.33
2018-05-26T03:07:00.133Z,76.23
2018-05-26T03:09:33.800Z,76.70
2018-05-26T03:12:08.436Z,76.61
2018-05-26T03:14:43.029Z,76.45
2018-05-26T03:17:11.295Z,76.43
2018-05-26T03:19:39.541Z,76.68
2018-05-26T03:22:08.204Z,76.44
2018-05-26T03:24:37.205Z,76.47
2018-05-26T03:27:05.444Z,76.25
2018-05-26T03:29:33.693Z,75.69
2018-05-26T03:32:01.942Z,75.78
2018-05-26T03:34:30.198Z,75.63
2018-05-26T03:36:58.442Z,75.90
2018-05-26T03:39:26.677Z,75.80
2018-05-26T03:41:54.922Z,76.12
2018-05-26T03:44:23.926Z,75.98
2018-05-26T03:46:52.179Z,76.19
2018-05-26T03:49:21.186Z,75.86
2018-05-26T03:51:49.430Z,76.03
2018-05-26T03:54:17.688Z,76.33
2018-05-26T03:57:03.755Z,76.71
2018-05-26T03:59:49.855Z,76.92
2018-05-26T04:02:18.297Z,77.08
2018-05-26T04:04:47.311Z,77.35
2018-05-26T04:07:15.556Z,77.52
2018-05-26T04:09:43.957Z,77.10
2018-05-26T04:12:12.207Z,77.07
2018-05-26T04:14:40.442Z,76.65
2018-05-26T04:17:08.698Z,76.95
2018-05-26T04:19:36.946Z,76.60
2018-05-26T04:22:06.062Z,77.08
2018-05-26T04:24:34.314Z,76.90
2018-05-26T04:27:03.344Z,77.00
2018-05-26T04:29:31.596Z,76.38
2018-05-26T04:32:00.588Z,76.21
2018-05-26T04:34:29.606Z,76.43
2018-05-26T04:36:57.859Z,76.25
2018-05-26T04:39:26.879Z,76.11
2018-05-26T04:41:55.130Z,76.18
2018-05-26T04:44:23.427Z,76.43
2018-05-26T04:46:51.662Z,76.70
2018-05-26T04:49:20.698Z,76.49
2018-05-26T04:51:48.937Z,76.55
2018-05-26T04:54:17.947Z,76.50
2018-05-26T04:56:46.191Z,76.38
2018-05-26T04:59:14.433Z,76.26
2018-05-26T05:01:42.686Z,76.05
2018-05-26T05:04:10.933Z,76.17
2018-05-26T05:06:39.942Z,76.73
2018-05-26T05:09:08.200Z,76.81
2018-05-26T05:11:37.231Z,76.69
2018-05-26T05:14:05.478Z,76.47
2018-05-26T05:16:34.787Z,76.21
2018-05-26T05:19:03.026Z,75.86
2018-05-26T05:21:32.046Z,76.07
2018-05-26T05:24:01.254Z,75.80
2018-05-26T05:26:29.498Z,75.60
2018-05-26T05:28:57.733Z,75.39
2018-05-26T05:31:25.994Z,75.45
2018-05-26T05:33:54.454Z,75.75
2018-05-26T05:36:22.704Z,75.53
2018-05-26T05:38:50.937Z,76.00
2018-05-26T05:41:19.195Z,75.67
2018-05-26T05:43:47.451Z,75.70
2018-05-26T05:46:16.463Z,74.47
2018-05-26T05:48:44.722Z,74.58
2018-05-26T05:51:13.743Z,74.83
2018-05-26T05:53:41.982Z,74.57
2018-05-26T05:56:11.020Z,74.60
2018-05-26T05:58:39.246Z,74.33
2018-05-26T06:01:07.479Z,73.32
2018-05-26T06:03:36.005Z,73.60
2018-05-26T06:06:04.233Z,73.15
2018-05-26T06:08:32.470Z,73.12
2018-05-26T06:11:01.046Z,73.13
2018-05-26T06:13:30.055Z,73.26
2018-05-26T06:15:58.297Z,73.51
2018-05-26T06:18:26.544Z,73.75
2018-05-26T06:20:54.790Z,73.22
2018-05-26T06:23:23.059Z,74.04
2018-05-26T06:25:51.302Z,73.34
2018-05-26T06:28:19.553Z,73.38
2018-05-26T06:30:47.801Z,73.40
2018-05-26T06:33:16.039Z,74.02
2018-05-26T06:35:45.045Z,73.97
2018-05-26T06:38:13.304Z,73.60
2018-05-26T06:40:41.598Z,72.67
2018-05-26T06:43:10.619Z,72.93
2018-05-26T06:45:39.869Z,73.06
2018-05-26T06:48:08.113Z,72.80
2018-05-26T06:50:36.358Z,73.83
2018-05-26T06:53:05.150Z,73.43
2018-05-26T06:55:33.398Z,74.88
2018-05-26T06:58:02.423Z,74.68
2018-05-26T07:00:30.679Z,74.67
2018-05-26T07:02:58.921Z,73.10
2018-05-26T07:05:27.334Z,73.29
2018-05-26T07:07:55.573Z,72.63
2018-05-26T07:10:23.809Z,73.19
2018-05-26T07:12:52.071Z,73.26
2018-05-26T07:15:20.326Z,74.20
2018-05-26T07:17:49.634Z,72.96
2018-05-26T07:20:17.877Z,72.65
2018-05-26T07:22:46.117Z,72.18
2018-05-26T07:25:14.372Z,71.52
2018-05-26T07:27:42.619Z,72.18
2018-05-26T07:30:11.632Z,71.07
2018-05-26T07:32:40.114Z,71.56
2018-05-26T07:35:08.425Z,71.10
2018-05-26T07:37:36.766Z,71.17
2018-05-26T07:40:05.025Z,71.06
2018-05-26T07:42:34.052Z,71.26
2018-05-26T07:45:02.346Z,71.43
2018-05-26T07:47:30.682Z,70.77
2018-05-26T07:49:59.705Z,71.30
2018-05-26T07:52:27.956Z,72.26
2018-05-26T07:54:56.974Z,69.94
2018-05-26T07:57:25.226Z,70.10
2018-05-26T07:59:53.475Z,70.01
2018-05-26T08:02:21.729Z,69.03
2018-05-26T08:04:49.987Z,69.87
2018-05-26T08:07:18.252Z,69.61
2018-05-26T08:09:46.495Z,69.89
2018-05-26T08:12:15.515Z,70.34
2018-05-26T08:14:43.773Z,68.82
2018-05-26T08:17:12.089Z,68.59
2018-05-26T08:19:40.278Z,68.76
2018-05-26T08:22:08.906Z,69.12
2018-05-26T08:24:37.926Z,67.92
2018-05-26T08:27:06.171Z,67.74
2018-05-26T08:29:35.194Z,66.71
2018-05-26T08:32:03.441Z,66.82
2018-05-26T08:34:32.441Z,67.67
2018-05-26T08:37:01.479Z,67.88
2018-05-26T08:39:29.717Z,67.30
2018-05-26T08:41:57.970Z,67.53
2018-05-26T08:44:26.226Z,68.02
2018-05-26T08:46:54.465Z,67.69
2018-05-26T08:49:22.710Z,66.58
2018-05-26T08:51:51.197Z,66.08
2018-05-26T08:54:19.439Z,65.14
2018-05-26T08:56:47.678Z,64.88
2018-05-26T08:59:15.931Z,65.10
2018-05-26T09:01:44.170Z,66.03
2018-05-26T09:04:12.422Z,64.58
2018-05-26T09:06:40.654Z,66.00
2018-05-26T09:09:08.910Z,65.60
2018-05-26T09:11:37.918Z,65.53
2018-05-26T09:14:06.165Z,62.56
2018-05-26T09:16:34.419Z,64.72
2018-05-26T09:19:02.674Z,62.55
2018-05-26T09:21:30.918Z,64.97
2018-05-26T09:23:59.174Z,63.93
2018-05-26T09:26:28.185Z,62.91
2018-05-26T09:28:57.214Z,61.76
2018-05-26T09:31:25.511Z,61.86
2018-05-26T09:33:53.707Z,63.54
2018-05-26T09:36:21.942Z,62.13
2018-05-26T09:38:50.207Z,60.37
2018-05-26T09:41:18.450Z,61.65
2018-05-26T09:43:47.455Z,59.51
2018-05-26T09:46:15.711Z,60.33
2018-05-26T09:48:44.730Z,60.19
2018-05-26T09:51:12.974Z,60.55
2018-05-26T09:53:41.227Z,59.98
2018-05-26T09:56:09.468Z,58.66
2018-05-26T09:58:37.923Z,59.21
2018-05-26T10:01:06.938Z,59.03
2018-05-26T10:03:35.174Z,59.90
2018-05-26T10:06:03.424Z,58.36
2018-05-26T10:08:31.654Z,57.32
2018-05-26T10:10:59.907Z,57.73
2018-05-26T10:13:28.952Z,60.05
2018-05-26T10:15:57.914Z,58.46
2018-05-26T10:18:26.167Z,58.72
2018-05-26T10:20:55.282Z,57.38
2018-05-26T10:23:23.539Z,57.63
2018-05-26T10:25:52.566Z,58.58
2018-05-26T10:28:20.806Z,56.83
2018-05-26T10:30:49.817Z,56.18
2018-05-26T10:33:18.073Z,57.45
2018-05-26T10:35:46.338Z,56.71
2018-05-26T10:38:14.642Z,56.10
2018-05-26T10:40:42.822Z,57.47
2018-05-26T10:43:11.302Z,57.25
2018-05-26T10:45:40.415Z,55.25
2018-05-26T10:48:08.656Z,56.07
2018-05-26T10:50:36.903Z,55.48
2018-05-26T10:53:05.959Z,54.32
2018-05-26T10:55:34.203Z,54.20
2018-05-26T10:58:03.230Z,55.92
2018-05-26T11:00:31.474Z,55.04
2018-05-26T11:03:00.483Z,54.77
2018-05-26T11:05:28.733Z,54.79
2018-05-26T11:07:57.772Z,54.26
2018-05-26T11:10:26.023Z,53.76
2018-05-26T11:12:54.259Z,54.00
2018-05-26T11:15:23.257Z,52.75
2018-05-26T11:17:51.821Z,51.14
2018-05-26T11:20:20.066Z,51.92
2018-05-26T11:22:48.253Z,51.52
2018-05-26T11:25:16.706Z,52.42
2018-05-26T11:27:45.710Z,53.19
2018-05-26T11:30:13.956Z,52.29
2018-05-26T11:32:43.270Z,52.15
2018-05-26T11:35:12.270Z,53.90
2018-05-26T11:37:40.517Z,54.21
2018-05-26T11:40:08.764Z,52.99
2018-05-26T11:42:37.011Z,50.95
2018-05-26T11:45:05.253Z,51.85
2018-05-26T11:47:34.363Z,52.43
2018-05-26T11:50:03.366Z,53.87
2018-05-26T11:52:31.609Z,53.58
2018-05-26T11:54:59.863Z,53.44
2018-05-26T11:57:28.115Z,52.98
2018-05-26T11:59:56.358Z,53.68
2018-05-26T12:02:24.607Z,54.15
2018-05-26T12:04:52.937Z,55.24
2018-05-26T12:07:21.170Z,54.97
2018-05-26T12:09:50.183Z,53.47
2018-05-26T12:12:18.435Z,53.72
2018-05-26T12:14:46.677Z,54.83
2018-05-26T12:17:14.921Z,55.15
2018-05-26T12:19:43.206Z,53.09
2018-05-26T12:22:11.446Z,53.54
2018-05-26T12:24:40.455Z,50.68
2018-05-26T12:27:08.689Z,49.99
2018-05-26T12:29:36.950Z,48.25
2018-05-26T12:32:05.177Z,50.20
2018-05-26T12:34:33.417Z,48.97
2018-05-26T12:37:01.664Z,47.57
2018-05-26T12:39:29.907Z,47.35
2018-05-26T12:41:58.158Z,46.89
2018-05-26T12:44:27.166Z,46.30
2018-05-26T12:46:56.195Z,47.78
2018-05-26T12:49:24.430Z,48.75
2018-05-26T12:51:53.439Z,48.50
2018-05-26T12:54:21.918Z,49.60
2018-05-26T12:56:50.161Z,47.89
2018-05-26T12:59:18.397Z,48.33
2018-05-26T13:01:46.650Z,50.25
2018-05-26T13:04:14.895Z,49.55
2018-05-26T13:06:43.125Z,49.70
2018-05-26T13:09:11.378Z,48.56
2018-05-26T13:11:39.851Z,49.06
2018-05-26T13:14:08.101Z,49.44
2018-05-26T13:16:36.338Z,49.52
2018-05-26T13:19:04.593Z,49.61
2018-05-26T13:21:32.827Z,47.57
2018-05-26T13:24:01.071Z,49.17
2018-05-26T13:26:29.317Z,48.16
2018-05-26T13:28:57.594Z,48.27
2018-05-26T13:31:25.821Z,49.53
2018-05-26T13:33:55.585Z,48.44
2018-05-26T13:36:23.827Z,45.76
2018-05-26T13:38:52.838Z,47.42
2018-05-26T13:41:21.077Z,45.86
2018-05-26T13:43:49.326Z,44.74
2018-05-26T13:46:17.562Z,44.06
2018-05-26T13:48:45.810Z,44.82
2018-05-26T13:51:14.068Z,43.55
2018-05-26T13:53:42.295Z,41.73
2018-05-26T13:56:10.531Z,42.94
2018-05-26T13:58:38.794Z,44.84
2018-05-26T14:01:07.036Z,46.05
2018-05-26T14:03:35.281Z,44.10
2018-05-26T14:06:03.526Z,42.86
2018-05-26T14:08:31.773Z,42.98
2018-05-26T14:11:00.061Z,44.56
2018-05-26T14:13:29.414Z,43.70
2018-05-26T14:15:57.672Z,44.14
2018-05-26T14:18:26.682Z,43.24
2018-05-26T14:20:54.931Z,44.89
2018-05-26T14:23:23.434Z,43.56
2018-05-26T14:25:52.447Z,43.04
2018-05-26T14:28:20.691Z,41.14
2018-05-26T14:30:49.703Z,40.40
2018-05-26T14:33:19.003Z,42.46
2018-05-26T14:35:47.242Z,41.67
2018-05-26T14:38:15.483Z,40.27
2018-05-26T14:40:43.726Z,40.96
2018-05-26T14:43:12.135Z,40.12
2018-05-26T14:45:40.375Z,42.32
2018-05-26T14:48:09.388Z,42.62
2018-05-26T14:50:37.638Z,40.58
2018-05-26T14:53:07.346Z,39.86
2018-05-26T14:55:36.355Z,40.09
2018-05-26T14:58:04.839Z,41.09
2018-05-26T15:00:33.074Z,42.37
2018-05-26T15:03:01.317Z,43.53
2018-05-26T15:05:29.571Z,42.59
2018-05-26T15:07:57.829Z,43.97
2018-05-26T15:10:26.873Z,43.12
2018-05-26T15:12:55.492Z,43.53
2018-05-26T15:15:24.414Z,45.28
2018-05-26T15:17:52.663Z,44.12
2018-05-26T15:20:20.912Z,41.62
2018-05-26T15:22:49.161Z,41.12
2018-05-26T15:25:17.385Z,43.11
2018-05-26T15:27:45.623Z,44.12
2018-05-26T15:30:13.864Z,44.08
2018-05-26T15:32:42.115Z,41.37
2018-05-26T15:35:11.135Z,41.49
2018-05-26T15:37:39.424Z,42.52
2018-05-26T15:40:08.396Z,43.43
2018-05-26T15:42:36.634Z,44.78
2018-05-26T15:45:04.878Z,45.72
2018-05-26T15:47:33.118Z,45.50
2018-05-26T15:50:02.139Z,44.64
2018-05-26T15:52:30.383Z,44.38
2018-05-26T15:54:59.387Z,45.05
2018-05-26T15:57:28.402Z,46.48
2018-05-26T15:59:56.664Z,46.88
2018-05-26T16:02:25.647Z,45.87
2018-05-26T16:04:53.902Z,46.37
2018-05-26T16:07:22.913Z,46.80
2018-05-26T16:09:51.913Z,46.06
2018-05-26T16:12:20.162Z,47.00
2018-05-26T16:14:48.406Z,46.81
2018-05-26T16:17:16.653Z,47.09
2018-05-26T16:19:45.242Z,47.69
2018-05-26T16:22:13.476Z,47.35
2018-05-26T16:24:41.702Z,48.18
2018-05-26T16:27:09.942Z,48.92
2018-05-26T16:29:38.960Z,48.45
2018-05-26T16:32:07.206Z,48.76
2018-05-26T16:34:36.207Z,49.25
2018-05-26T16:37:05.201Z,48.86
2018-05-26T16:39:33.459Z,48.38
2018-05-26T16:42:02.462Z,48.22
2018-05-26T16:44:31.479Z,48.78
2018-05-26T16:46:59.725Z,48.42
2018-05-26T16:49:28.737Z,46.59
2018-05-26T16:51:57.003Z,48.14
2018-05-26T16:54:25.243Z,49.31
2018-05-26T16:56:53.494Z,49.39
2018-05-26T16:59:21.738Z,47.55
2018-05-26T17:01:49.981Z,47.32
2018-05-26T17:04:18.232Z,47.30
2018-05-26T17:06:46.458Z,47.80
2018-05-26T17:09:14.938Z,47.97
2018-05-26T17:11:43.946Z,47.70
2018-05-26T17:14:12.185Z,48.26
2018-05-26T17:16:41.510Z,48.01
2018-05-26T17:19:10.609Z,48.07
2018-05-26T17:21:38.839Z,48.10
2018-05-26T17:24:07.086Z,48.60
2018-05-26T17:26:35.330Z,49.49
2018-05-26T17:29:04.329Z,49.59
2018-05-26T17:31:32.578Z,49.99
2018-05-26T17:34:01.602Z,49.58
2018-05-26T17:36:29.888Z,50.23
2018-05-26T17:38:58.086Z,51.49
2018-05-26T17:41:26.336Z,51.50
2018-05-26T17:43:54.618Z,51.45
2018-05-26T17:46:22.846Z,52.64
2018-05-26T17:48:51.086Z,52.40
2018-05-26T17:51:19.334Z,52.49
2018-05-26T17:53:47.598Z,52.85
2018-05-26T17:56:16.643Z,52.77
2018-05-26T17:58:44.853Z,53.60
2018-05-26T18:01:13.877Z,54.58
2018-05-26T18:03:42.129Z,54.62
2018-05-26T18:06:11.147Z,54.96
2018-05-26T18:08:39.382Z,55.77
2018-05-26T18:11:08.398Z,56.11
2018-05-26T18:13:36.655Z,56.77
2018-05-26T18:16:04.893Z,57.63
2018-05-26T18:18:33.327Z,57.48
2018-05-26T18:21:01.582Z,57.12
2018-05-26T18:23:29.823Z,58.07
2018-05-26T18:25:58.089Z,58.16
2018-05-26T18:28:26.323Z,58.74
2018-05-26T18:30:55.527Z,59.20
2018-05-26T18:33:23.774Z,59.46
2018-05-26T18:35:53.525Z,59.59
2018-05-26T18:38:21.774Z,59.03
2018-05-26T18:40:50.790Z,59.49
2018-05-26T18:43:19.043Z,59.70
2018-05-26T18:45:48.055Z,60.65
2018-05-26T18:48:16.311Z,60.80
2018-05-26T18:50:45.527Z,60.46
2018-05-26T18:53:13.770Z,60.76
2018-05-26T18:55:42.010Z,60.70
2018-05-26T18:58:10.259Z,60.81
2018-05-26T19:00:38.839Z,60.84
2018-05-26T19:03:07.770Z,61.22
2018-05-26T19:05:36.002Z,61.38
2018-05-26T19:08:04.254Z,61.62
2018-05-26T19:10:32.491Z,61.96
2018-05-26T19:13:00.738Z,62.12
2018-05-26T19:15:29.000Z,62.24
2018-05-26T19:17:58.098Z,62.54
2018-05-26T19:20:27.105Z,62.35
2018-05-26T19:22:55.338Z,62.53
2018-05-26T19:25:23.578Z,61.93
2018-05-26T19:27:51.827Z,62.36
2018-05-26T19:30:20.062Z,62.21
2018-05-26T19:32:48.314Z,61.79
2018-05-26T19:35:16.558Z,61.77
2018-05-26T19:37:44.808Z,62.01
2018-05-26T19:40:13.823Z,61.81
2018-05-26T19:42:42.054Z,62.24
2018-05-26T19:45:10.315Z,62.30
2018-05-26T19:47:38.592Z,62.47
2018-05-26T19:50:07.126Z,62.48
2018-05-26T19:52:35.358Z,63.19
2018-05-26T19:55:03.591Z,63.11
2018-05-26T19:57:31.849Z,62.90
2018-05-26T20:00:00.099Z,63.20
2018-05-26T20:02:28.352Z,62.98
2018-05-26T20:04:56.586Z,63.29
2018-05-26T20:07:24.822Z,63.36
2018-05-26T20:09:53.985Z,63.32
2018-05-26T20:12:22.226Z,63.55
2018-05-26T20:14:51.259Z,63.43
2018-05-26T20:17:19.555Z,63.67
2018-05-26T20:19:47.791Z,63.88
2018-05-26T20:22:16.047Z,64.07
2018-05-26T20:24:44.285Z,64.06
2018-05-26T20:27:12.527Z,63.92
2018-05-26T20:29:40.890Z,64.07
2018-05-26T20:32:09.134Z,63.96
2018-05-26T20:34:38.456Z,63.88
2018-05-26T20:37:06.694Z,63.78
2018-05-26T20:39:34.927Z,63.97
2018-05-26T20:42:03.174Z,63.97
2018-05-26T20:44:32.173Z,64.34
2018-05-26T20:47:00.426Z,64.46
2018-05-26T20:49:29.431Z,64.42
2018-05-26T20:51:58.443Z,64.34
2018-05-26T20:54:26.678Z,64.72
2018-05-26T20:56:54.924Z,64.54
2018-05-26T20:59:23.169Z,64.39
2018-05-26T21:01:51.418Z,64.71
2018-05-26T21:04:20.428Z,64.89
2018-05-26T21:06:49.484Z,64.78
2018-05-26T21:09:17.677Z,64.54
2018-05-26T21:11:46.678Z,64.35
2018-05-26T21:14:15.690Z,64.34
2018-05-26T21:16:43.930Z,64.76
2018-05-26T21:19:12.938Z,64.57
2018-05-26T21:21:41.955Z,64.86
2018-05-26T21:24:10.193Z,64.95
2018-05-26T21:26:38.446Z,65.54
2018-05-26T21:29:06.700Z,65.54
2018-05-26T21:31:34.935Z,65.98
2018-05-26T21:34:03.942Z,66.12
2018-05-26T21:36:32.194Z,66.06
2018-05-26T21:39:01.243Z,66.00
2018-05-26T21:41:29.484Z,65.64
2018-05-26T21:43:57.734Z,65.95
2018-05-26T21:46:25.986Z,65.26
2018-05-26T21:48:54.218Z,66.24
2018-05-26T21:51:22.453Z,66.18
2018-05-26T21:53:50.853Z,65.62
2018-05-26T21:56:19.949Z,65.84
2018-05-26T21:58:48.956Z,66.22
2018-05-26T22:01:17.429Z,65.03
2018-05-26T22:03:45.678Z,65.11
2018-05-26T22:06:13.910Z,65.17
2018-05-26T22:08:42.163Z,65.28
2018-05-26T22:11:10.419Z,65.58
2018-05-26T22:13:39.439Z,66.00
2018-05-26T22:16:07.683Z,66.15
2018-05-26T22:18:35.935Z,67.01
2018-05-26T22:21:04.176Z,66.85
2018-05-26T22:23:32.429Z,66.45
2018-05-26T22:26:01.440Z,66.66
2018-05-26T22:28:29.678Z,67.35
2018-05-26T22:30:58.203Z,67.48
2018-05-26T22:33:26.446Z,67.46
2018-05-26T22:35:55.450Z,67.47
2018-05-26T22:38:23.714Z,68.02
2018-05-26T22:40:52.717Z,67.80
2018-05-26T22:43:20.963Z,67.53
2018-05-26T22:45:49.219Z,68.34
2018-05-26T22:48:17.463Z,68.52
2018-05-26T22:50:45.710Z,68.55
2018-05-26T22:53:14.731Z,68.82
2018-05-26T22:55:42.974Z,68.92
2018-05-26T22:58:11.977Z,68.67
2018-05-26T23:00:40.999Z,69.19
2018-05-26T23:03:09.234Z,69.13
2018-05-26T23:05:38.262Z,69.25
2018-05-26T23:08:06.524Z,69.55
2018-05-26T23:10:35.823Z,69.76
2018-05-26T23:13:04.070Z,69.98
2018-05-26T23:15:32.310Z,70.11
2018-05-26T23:18:00.570Z,69.88
2018-05-26T23:20:28.811Z,70.26
2018-05-26T23:22:57.817Z,70.21
2018-05-26T23:25:26.189Z,70.38
2018-05-26T23:27:55.213Z,70.55
2018-05-26T23:30:23.530Z,70.61
2018-05-26T23:32:51.785Z,70.62
2018-05-26T23:35:20.034Z,70.72
2018-05-26T23:37:48.300Z,70.76
2018-05-26T23:40:16.538Z,70.64
2018-05-26T23:42:44.778Z,71.03
2018-05-26T23:45:13.036Z,71.10
2018-05-26T23:47:41.273Z,71.20
2018-05-26T23:50:10.293Z,71.66
2018-05-26T23:52:38.553Z,71.45
2018-05-26T23:55:07.576Z,71.37
2018-05-26T23:57:35.809Z,71.46
